Time;durP1;ratioP1;P1;durP2;ratioP2;P2;SDS_P1;SDS_P2;PMS_P1;PMS_P2;Temp;Humidity;BMP_temperature;BMP_pressure;BME280_temperature;BME280_humidity;BME280_pressure;Samples;Min_cycle;Max_cycle;Signal;HPM_P1;HPM_P2
2023/01/10 00:01:24;;;;;;;;;;;9.80;83.90;;;8.80;66.72;100113.06;6151315;23;20003;-77
2023/01/10 00:03:51;;;;;;;;;;;9.90;84.10;;;8.77;66.41;100121.44;6151603;23;19927;-78
2023/01/10 00:06:18;;;;;;;;;;;9.80;83.60;;;8.77;66.77;100126.75;6150091;23;20294;-78
2023/01/10 00:08:45;;;;;;;;;;;9.80;84.00;;;8.78;66.72;100131.03;6151156;23;20331;-78
2023/01/10 00:13:54;;;;;;;;;;;9.80;83.90;;;8.82;66.37;100144.75;6151131;23;19991;-77
2023/01/10 00:16:22;;;;;;;;;;;9.90;83.70;;;8.83;66.42;100159.66;6150760;23;20303;-77
2023/01/10 00:18:52;;;;;;;;;;;9.90;83.50;;;8.81;66.40;100167.88;6150648;23;19920;-78
2023/01/10 00:21:19;;;;;;;;;;;9.90;83.50;;;8.80;66.45;100160.91;6151032;23;20236;-78
2023/01/10 00:23:48;;;;;;;;;;;9.90;83.50;;;8.83;66.07;100167.66;6151510;23;19917;-78
2023/01/10 00:26:15;;;;;;;;;;;9.90;83.40;;;8.81;66.04;100169.72;6152823;23;19983;-78
2023/01/10 00:28:42;;;;;;;;;;;9.90;83.30;;;8.81;66.21;100178.50;6150840;23;19921;-77
2023/01/10 00:31:10;;;;;;;;;;;9.90;83.30;;;8.81;66.02;100186.47;6153070;23;20358;-78
2023/01/10 00:33:39;;;;;;;;;;;9.90;83.30;;;8.82;66.10;100184.63;6152856;23;20401;-78
2023/01/10 00:36:07;;;;;;;;;;;9.90;83.40;;;8.83;66.17;100196.91;6152153;23;19923;-77
2023/01/10 00:38:36;;;;;;;;;;;9.90;83.30;;;8.81;66.24;100202.44;6152703;23;19920;-78
2023/01/10 00:43:55;;;;;;;;;;;9.90;83.50;;;8.81;66.09;100212.25;6153295;23;19916;-78
2023/01/10 00:43:58;;;;;;;;;;;9.90;83.40;;;8.80;66.41;100208.78;6151605;23;19967;-78
2023/01/10 00:46:25;;;;;;;;;;;9.90;83.60;;;8.80;66.50;100208.78;6152846;23;20240;-78
2023/01/10 00:48:53;;;;;;;;;;;10.00;83.70;;;8.71;66.78;100216.16;6151753;23;19920;-77
2023/01/10 00:51:20;;;;;;;;;;;9.90;83.70;;;8.72;66.96;100216.97;6151166;23;19920;-78
2023/01/10 00:53:47;;;;;;;;;;;9.90;83.90;;;8.76;66.85;100216.34;6153246;23;19921;-77
2023/01/10 00:56:14;;;;;;;;;;;9.90;83.80;;;8.77;66.57;100215.31;6152499;23;19928;-78
2023/01/10 00:58:43;;;;;;;;;;;9.90;83.60;;;8.75;66.48;100222.69;6152550;23;19999;-78
2023/01/10 01:01:10;;;;;;;;;;;9.90;83.70;;;8.75;66.46;100235.16;6151936;23;19948;-78
2023/01/10 01:03:37;;;;;;;;;;;9.80;83.50;;;8.75;66.22;100243.97;6152424;23;20414;-78
2023/01/10 01:06:07;;;;;;;;;;;9.80;83.30;;;8.72;65.93;100239.03;6152536;23;19920;-77
2023/01/10 01:08:34;;;;;;;;;;;9.80;83.10;;;8.68;65.99;100248.44;6152310;23;19917;-78
2023/01/10 01:11:01;;;;;;;;;;;10.00;83.30;;;8.69;66.06;100255.41;6152876;23;19959;-78
2023/01/10 01:13:28;;;;;;;;;;;9.80;83.10;;;8.67;65.98;100264.59;6152724;23;20291;-77
2023/01/10 01:15:58;;;;;;;;;;;9.80;83.00;;;8.61;66.12;100254.78;6152183;23;19921;-78
2023/01/10 01:18:25;;;;;;;;;;;9.80;83.10;;;8.61;66.21;100287.50;6152301;23;19960;-78
2023/01/10 01:20:55;;;;;;;;;;;9.80;83.20;;;8.62;66.22;100286.47;6152996;23;19955;-78
2023/01/10 01:23:24;;;;;;;;;;;9.70;83.30;;;8.61;66.23;100289.34;6152840;23;20003;-78
2023/01/10 01:25:51;;;;;;;;;;;9.70;83.30;;;8.57;66.38;100296.09;6151877;23;20366;-78
2023/01/10 01:28:18;;;;;;;;;;;9.70;83.50;;;8.56;66.65;100300.59;6152434;23;20011;-77
2023/01/10 01:30:45;;;;;;;;;;;9.70;83.70;;;8.57;66.42;100299.56;6151707;23;20585;-78
2023/01/10 01:33:13;;;;;;;;;;;9.70;83.50;;;8.54;66.21;100300.00;6152786;23;20003;-78
2023/01/10 01:35:42;;;;;;;;;;;9.70;83.40;;;8.56;66.40;100303.25;6152415;23;19925;-78
2023/01/10 01:38:09;;;;;;;;;;;9.70;83.50;;;8.57;66.35;100304.88;6152006;23;20314;-78
2023/01/10 01:40:38;;;;;;;;;;;9.70;83.50;;;8.57;66.15;100314.69;6152320;23;19979;-78
2023/01/10 01:43:05;;;;;;;;;;;9.60;83.30;;;8.56;66.26;100313.88;6152660;23;20319;-78
2023/01/10 01:45:38;;;;;;;;;;;9.60;83.50;;;8.55;66.47;100322.06;6152236;23;20007;-77
2023/01/10 01:48:24;;;;;;;;;;;9.70;83.80;;;8.57;66.49;100328.81;6150082;23;19948;-78
2023/01/10 01:50:55;;;;;;;;;;;9.70;83.90;;;8.53;66.53;100335.53;6152473;23;19991;-78
2023/01/10 01:53:27;;;;;;;;;;;9.60;83.70;;;8.49;66.76;100336.94;6152996;23;19916;-78
2023/01/10 01:55:59;;;;;;;;;;;9.60;83.80;;;8.52;66.99;100344.53;6152399;23;19917;-77
2023/01/10 01:58:33;;;;;;;;;;;9.60;83.90;;;8.54;66.77;100342.50;6150917;23;19923;-78
2023/01/10 02:01:00;;;;;;;;;;;9.60;84.00;;;8.59;66.92;100344.53;6151628;23;20328;-78
2023/01/10 02:03:27;;;;;;;;;;;9.70;84.10;;;8.58;66.77;100348.22;6152504;23;19921;-78
2023/01/10 02:05:54;;;;;;;;;;;9.70;84.10;;;8.52;66.69;100355.16;6150326;23;19927;-78
2023/01/10 02:08:22;;;;;;;;;;;9.60;83.90;;;8.52;66.88;100357.81;6151696;23;19952;-78
2023/01/10 02:10:54;;;;;;;;;;;9.60;84.10;;;8.52;66.92;100349.84;6151458;23;19995;-78
2023/01/10 02:13:25;;;;;;;;;;;9.60;84.10;;;8.54;67.07;100350.50;6150496;23;19916;-77
2023/01/10 02:15:52;;;;;;;;;;;9.60;84.20;;;8.50;66.86;100346.59;6152214;23;19939;-78
2023/01/10 02:18:20;;;;;;;;;;;9.60;84.00;;;8.51;66.81;100358.84;6150938;23;19920;-77
2023/01/10 02:21:19;;;;;;;;;;;9.60;84.10;;;8.52;66.64;100365.78;6152180;23;19921;-78
2023/01/10 02:24:15;;;;;;;;;;;9.60;84.00;;;8.50;67.00;100367.84;6151966;23;20270;-78
2023/01/10 02:27:01;;;;;;;;;;;9.60;84.10;;;8.46;67.18;100363.94;6151743;23;20019;-78
2023/01/10 02:29:59;;;;;;;;;;;9.50;84.30;;;8.46;67.10;100359.44;6152051;23;19988;-78
2023/01/10 02:32:35;;;;;;;;;;;9.60;84.40;;;8.43;67.44;100365.16;6151935;23;19944;-78
2023/01/10 02:35:11;;;;;;;;;;;9.50;84.30;;;8.42;67.50;100370.69;6152069;23;20003;-77
2023/01/10 02:37:45;;;;;;;;;;;9.50;84.50;;;8.48;67.19;100364.56;6151085;23;20007;-78
2023/01/10 02:40:20;;;;;;;;;;;9.50;84.50;;;8.45;67.29;100364.97;6149835;23;19999;-78
2023/01/10 02:42:52;;;;;;;;;;;9.50;84.50;;;8.47;67.17;100373.56;6151986;23;19920;-78
2023/01/10 02:45:25;;;;;;;;;;;9.50;84.10;;;8.47;66.78;100371.72;6150030;23;19920;-78
2023/01/10 02:47:55;;;;;;;;;;;9.50;84.10;;;8.51;66.81;100374.78;6150800;23;20367;-78
2023/01/10 02:50:36;;;;;;;;;;;9.60;84.10;;;8.51;66.62;100382.78;6151297;23;19930;-78
2023/01/10 02:53:06;;;;;;;;;;;9.60;83.90;;;8.50;66.55;100373.97;6150184;23;20302;-78
2023/01/10 02:55:47;;;;;;;;;;;9.50;83.70;;;8.47;66.45;100376.22;6152197;23;19920;-77
2023/01/10 02:58:26;;;;;;;;;;;9.50;83.70;;;8.45;65.80;100378.25;6150989;23;20315;-78
2023/01/10 03:00:58;;;;;;;;;;;9.50;83.10;;;8.39;65.92;100384.34;6150225;23;20006;-78
2023/01/10 03:03:35;;;;;;;;;;;9.50;83.30;;;8.39;65.38;100381.69;6151378;23;19920;-78
2023/01/10 03:06:12;;;;;;;;;;;9.50;82.90;;;8.33;66.14;100385.13;6151562;23;20446;-78
2023/01/10 03:08:43;;;;;;;;;;;9.50;83.30;;;8.36;66.07;100390.06;6151609;23;19920;-77
2023/01/10 03:11:11;;;;;;;;;;;9.50;83.30;;;8.38;66.27;100394.16;6151304;23;19917;-78
2023/01/10 03:13:43;;;;;;;;;;;9.50;83.40;;;8.40;66.12;100396.66;6151834;23;19927;-78
2023/01/10 03:16:13;;;;;;;;;;;9.50;83.20;;;8.38;66.11;100406.63;6151238;23;19920;-78
2023/01/10 03:18:45;;;;;;;;;;;9.50;83.20;;;8.36;65.90;100409.50;6151272;23;19927;-77
2023/01/10 03:21:13;;;;;;;;;;;9.50;83.30;;;8.26;66.09;100414.31;6150959;23;19926;-77
2023/01/10 03:23:40;;;;;;;;;;;9.40;83.30;;;8.29;66.37;100408.59;6152081;23;20011;-78
2023/01/10 03:26:09;;;;;;;;;;;9.40;83.50;;;8.30;66.29;100422.72;6151308;23;19943;-77
2023/01/10 03:28:41;;;;;;;;;;;9.40;83.50;;;8.29;66.49;100434.34;6151269;23;19917;-77
2023/01/10 03:31:11;;;;;;;;;;;9.40;83.60;;;8.27;66.47;100426.59;6151673;23;19943;-77
2023/01/10 03:33:38;;;;;;;;;;;9.40;83.70;;;8.28;66.49;100425.56;6151564;23;20422;-78
2023/01/10 03:36:15;;;;;;;;;;;9.40;83.60;;;8.19;65.42;100432.88;6151424;23;19921;-78
2023/01/10 03:38:46;;;;;;;;;;;9.30;82.70;;;8.17;65.92;100442.88;6150994;23;20354;-78
2023/01/10 03:41:16;;;;;;;;;;;9.30;83.30;;;8.23;66.16;100439.44;6151222;23;19975;-78
2023/01/10 03:46:39;;;;;;;;;;;9.30;83.30;;;8.23;65.78;100433.31;6151101;23;19943;-77
2023/01/10 03:51:47;;;;;;;;;;;9.30;82.50;;;8.23;65.08;100435.97;6063340;23;20308;-77
2023/01/10 03:54:15;;;;;;;;;;;9.30;82.70;;;8.24;65.22;100440.25;6063812;23;20320;-77
2023/01/10 03:56:48;;;;;;;;;;;9.30;82.70;;;8.26;64.92;100460.31;6062952;23;19974;-77
2023/01/10 03:59:16;;;;;;;;;;;9.30;82.50;;;8.31;64.75;100464.22;6064587;23;19921;-77
2023/01/10 04:01:42;;;;;;;;;;;9.40;82.20;;;8.29;64.40;100464.41;6092313;23;19928;-77
2023/01/10 04:04:10;;;;;;;;;;;9.40;82.00;;;8.25;64.36;100466.66;6092632;23;19967;-77
2023/01/10 04:06:37;;;;;;;;;;;9.40;81.80;;;8.29;64.34;100471.56;6092148;23;20316;-77
2023/01/10 04:09:05;;;;;;;;;;;9.40;81.60;;;8.31;64.03;100474.84;6092883;23;20595;-77
2023/01/10 04:11:32;;;;;;;;;;;9.40;81.60;;;8.29;63.71;100488.31;6091967;23;20258;-77
2023/01/10 04:13:59;;;;;;;;;;;9.40;81.40;;;8.23;64.37;100484.59;6091041;23;20346;-78
2023/01/10 04:16:26;;;;;;;;;;;9.40;81.60;;;8.22;64.16;100493.59;6091710;23;19917;-77
2023/01/10 04:18:53;;;;;;;;;;;9.40;81.50;;;8.21;64.30;100494.63;6092656;23;19921;-77
2023/01/10 04:21:20;;;;;;;;;;;9.30;81.40;;;8.24;64.18;100499.53;6092019;23;19921;-77
2023/01/10 04:23:47;;;;;;;;;;;9.30;81.50;;;8.25;63.88;100493.22;6092420;23;19949;-76
2023/01/10 04:26:15;;;;;;;;;;;9.30;81.40;;;8.20;63.82;100498.28;6090284;23;19928;-77
2023/01/10 04:28:42;;;;;;;;;;;9.30;81.60;;;8.20;64.13;100506.25;6092526;23;20362;-76
2023/01/10 04:31:09;;;;;;;;;;;9.50;81.60;;;8.19;63.85;100499.28;6092161;23;20295;-76
2023/01/10 04:33:37;;;;;;;;;;;9.30;81.60;;;8.15;64.13;100492.75;6092086;23;19967;-76
2023/01/10 04:36:06;;;;;;;;;;;9.30;81.50;;;8.16;64.29;100496.22;6090361;23;19928;-76
2023/01/10 04:38:33;;;;;;;;;;;9.20;81.60;;;8.09;64.06;100498.00;6092566;23;19924;-75
2023/01/10 04:41:00;;;;;;;;;;;9.20;81.60;;;8.08;64.37;100505.16;6089993;23;19921;-76
2023/01/10 04:43:28;;;;;;;;;;;9.20;81.80;;;8.07;64.59;100495.53;6092848;23;19996;-76
2023/01/10 04:45:55;;;;;;;;;;;9.20;82.00;;;8.09;64.63;100504.13;6092212;23;19921;-76
2023/01/10 04:48:22;;;;;;;;;;;9.20;81.80;;;8.13;64.24;100504.56;6092342;23;20004;-76
2023/01/10 04:50:50;;;;;;;;;;;9.20;81.60;;;8.14;63.82;100507.03;6092207;23;19937;-76
2023/01/10 04:53:17;;;;;;;;;;;9.20;81.40;;;8.16;63.81;100504.19;6092908;23;20343;-76
2023/01/10 04:55:44;;;;;;;;;;;9.20;81.20;;;8.12;63.55;100503.75;6092371;23;20407;-76
2023/01/10 04:58:11;;;;;;;;;;;9.20;81.20;;;8.04;63.83;100511.84;6092517;23;19921;-76
2023/01/10 05:00:40;;;;;;;;;;;9.10;81.00;;;8.03;63.59;100515.53;6090428;23;19923;-76
2023/01/10 05:03:07;;;;;;;;;;;9.10;81.30;;;8.06;63.69;100517.00;6092099;23;19918;-76
2023/01/10 05:05:34;;;;;;;;;;;9.10;81.40;;;8.07;63.68;100524.75;6092307;23;19921;-77
2023/01/10 05:08:01;;;;;;;;;;;9.20;81.40;;;8.01;63.75;100533.50;6091592;23;20374;-76
2023/01/10 05:10:28;;;;;;;;;;;9.10;81.40;;;8.01;64.14;100533.50;6092512;23;19921;-76
2023/01/10 05:12:55;;;;;;;;;;;9.10;81.60;;;8.05;64.21;100531.25;6094198;23;19928;-76
2023/01/10 05:15:22;;;;;;;;;;;9.10;81.80;;;8.06;64.05;100536.41;6094178;23;20245;-76
2023/01/10 05:17:53;;;;;;;;;;;9.10;81.80;;;8.05;64.34;100540.06;6093893;23;20421;-76
2023/01/10 05:20:20;;;;;;;;;;;9.10;82.00;;;7.94;64.79;100544.06;6093961;23;19925;-76
2023/01/10 05:22:48;;;;;;;;;;;9.10;82.00;;;7.96;64.64;100536.75;6093976;23;20247;-76
2023/01/10 05:25:15;;;;;;;;;;;9.10;82.10;;;7.94;64.73;100549.38;6093619;23;20331;-76
2023/01/10 05:27:42;;;;;;;;;;;9.10;82.00;;;7.96;64.60;100541.22;6093718;23;19917;-76
2023/01/10 05:30:11;;;;;;;;;;;9.10;82.00;;;7.94;64.40;100554.69;6093500;23;19992;-76
2023/01/10 05:32:38;;;;;;;;;;;9.00;81.80;;;7.95;64.55;100560.81;6092130;23;19965;-76
2023/01/10 05:35:08;;;;;;;;;;;9.10;81.90;;;7.92;64.56;100558.56;6093407;23;19925;-76
2023/01/10 05:37:35;;;;;;;;;;;9.10;81.90;;;7.93;64.72;100562.84;6093347;23;19928;-77
2023/01/10 05:40:02;;;;;;;;;;;9.10;81.90;;;7.97;64.30;100564.94;6092554;23;19921;-76
2023/01/10 05:42:28;;;;;;;;;;;9.10;81.80;;;7.97;64.24;100564.13;6091600;23;20332;-76
2023/01/10 05:44:55;;;;;;;;;;;9.10;81.60;;;7.94;64.30;100567.13;6091539;23;20507;-76
2023/01/10 05:47:24;;;;;;;;;;;9.10;81.40;;;7.74;64.06;100559.81;6093097;23;19927;-76
2023/01/10 05:49:51;;;;;;;;;;;9.00;81.00;;;7.80;64.91;100573.34;6116677;23;20445;-76
2023/01/10 05:52:19;;;;;;;;;;;9.00;81.40;;;7.84;64.57;100582.56;6090628;23;19917;-76
2023/01/10 05:54:46;;;;;;;;;;;9.10;81.40;;;7.85;64.22;100584.22;6090368;23;20024;-76
2023/01/10 05:57:13;;;;;;;;;;;9.00;81.20;;;7.87;63.99;100582.22;6090499;23;19917;-75
2023/01/10 05:59:40;;;;;;;;;;;9.10;81.10;;;7.90;63.98;100584.47;6093284;23;20410;-75
2023/01/10 06:02:07;;;;;;;;;;;9.10;81.00;;;7.92;63.91;100587.78;6093289;23;19921;-75
2023/01/10 06:04:34;;;;;;;;;;;9.10;80.80;;;7.93;63.50;100590.22;6090357;23;19928;-75
2023/01/10 06:07:01;;;;;;;;;;;9.10;80.80;;;7.93;63.59;100595.53;6092605;23;19932;-77
2023/01/10 06:09:29;;;;;;;;;;;9.10;80.60;;;7.95;63.74;100595.34;6093778;23;19917;-76
2023/01/10 06:11:56;;;;;;;;;;;9.10;80.60;;;7.96;63.43;100591.69;6093524;23;19998;-75
2023/01/10 06:14:23;;;;;;;;;;;9.10;80.50;;;7.92;63.39;100596.56;6093071;23;19932;-76
2023/01/10 06:16:50;;;;;;;;;;;9.10;80.50;;;7.92;63.29;100606.34;6093305;23;20649;-76
2023/01/10 06:19:17;;;;;;;;;;;9.10;80.60;;;7.93;63.14;100613.31;6094100;23;20307;-75
2023/01/10 06:21:44;;;;;;;;;;;9.20;80.60;;;7.96;63.06;100623.56;6093119;23;20251;-76
2023/01/10 06:24:11;;;;;;;;;;;9.10;80.40;;;7.94;63.17;100622.91;6093948;23;20082;-76
2023/01/10 06:26:39;;;;;;;;;;;9.10;80.50;;;7.89;63.37;100628.78;6093163;23;19921;-76
2023/01/10 06:29:06;;;;;;;;;;;9.00;80.40;;;7.86;63.32;100644.28;6093901;23;19921;-76
2023/01/10 06:31:33;;;;;;;;;;;9.00;80.40;;;7.86;62.98;100639.81;6093468;23;19929;-76
2023/01/10 06:34:00;;;;;;;;;;;9.00;80.60;;;7.78;63.19;100636.44;6093359;23;19928;-76
2023/01/10 06:36:27;;;;;;;;;;;9.00;80.70;;;7.75;63.77;100651.72;6092971;23;19927;-75
2023/01/10 06:38:54;;;;;;;;;;;9.00;81.00;;;7.75;63.94;100649.06;6093670;23;20303;-76
2023/01/10 06:41:21;;;;;;;;;;;8.90;81.20;;;7.77;63.94;100658.69;6093204;23;20052;-76
2023/01/10 06:43:49;;;;;;;;;;;8.90;81.20;;;7.73;63.87;100651.09;6093440;23;19917;-76
2023/01/10 06:46:18;;;;;;;;;;;8.90;81.10;;;7.71;64.09;100662.91;6092992;23;19927;-76
2023/01/10 06:48:45;;;;;;;;;;;8.90;81.40;;;7.77;64.17;100664.81;6093731;23;19922;-75
2023/01/10 06:51:13;;;;;;;;;;;8.90;81.40;;;7.80;64.07;100661.78;6093155;23;19921;-76
2023/01/10 06:53:40;;;;;;;;;;;8.90;81.40;;;7.72;64.66;100673.34;6093557;23;19932;-76
2023/01/10 06:56:08;;;;;;;;;;;8.90;81.80;;;7.74;64.32;100670.50;6092912;23;19928;-76
2023/01/10 06:58:37;;;;;;;;;;;8.90;81.60;;;7.74;64.53;100673.97;6093640;23;19921;-77
2023/01/10 07:01:06;;;;;;;;;;;8.90;82.00;;;7.69;64.36;100694.94;6092450;23;20403;-76
2023/01/10 07:03:33;;;;;;;;;;;8.80;81.60;;;7.66;64.91;100703.31;6092321;23;20453;-77
2023/01/10 07:06:02;;;;;;;;;;;8.80;82.10;;;7.63;65.11;100694.88;6093032;23;19928;-76
2023/01/10 07:08:29;;;;;;;;;;;8.80;82.10;;;7.62;65.06;100704.69;6093434;23;19917;-76
2023/01/10 07:10:59;;;;;;;;;;;8.80;82.20;;;7.68;65.15;100703.13;6091664;23;19995;-76
2023/01/10 07:13:26;;;;;;;;;;;8.80;82.40;;;7.69;65.33;100707.41;6093185;23;20344;-76
2023/01/10 07:16:00;;;;;;;;;;;9.00;82.50;;;7.73;65.27;100720.13;6090880;23;20339;-76
2023/01/10 07:18:28;;;;;;;;;;;8.90;82.50;;;7.70;65.06;100714.34;6093023;23;19921;-76
2023/01/10 07:20:55;;;;;;;;;;;8.80;82.20;;;7.72;65.28;100717.66;6092638;23;20004;-76
2023/01/10 07:23:22;;;;;;;;;;;8.80;82.40;;;7.67;64.95;100718.22;6092305;23;20338;-76
2023/01/10 07:25:49;;;;;;;;;;;8.80;82.30;;;7.73;65.35;100724.63;6090905;23;19923;-76
2023/01/10 07:28:16;;;;;;;;;;;8.80;82.70;;;7.77;65.19;100719.75;6090929;23;20260;-76
2023/01/10 07:30:43;;;;;;;;;;;8.90;82.70;;;7.78;65.23;100711.59;6091013;23;19927;-76
2023/01/10 07:33:10;;;;;;;;;;;8.90;82.70;;;7.84;65.26;100725.97;6090926;23;19944;-76
2023/01/10 07:35:39;;;;;;;;;;;9.00;82.50;;;7.81;64.58;100721.84;6090191;23;19921;-76
2023/01/10 07:38:06;;;;;;;;;;;9.00;82.00;;;7.75;64.95;100722.59;6092465;23;20338;-76
2023/01/10 07:40:33;;;;;;;;;;;8.90;82.20;;;7.77;64.91;100725.06;6092411;23;19972;-76
2023/01/10 07:43:01;;;;;;;;;;;8.90;82.20;;;7.72;65.26;100749.53;6092304;23;19921;-76
2023/01/10 07:45:29;;;;;;;;;;;8.90;82.40;;;7.70;65.01;100738.25;6092801;23;19929;-76
2023/01/10 07:47:57;;;;;;;;;;;8.80;82.50;;;7.72;65.27;100741.56;6091992;23;20480;-76
2023/01/10 07:50:23;;;;;;;;;;;8.80;82.70;;;7.68;65.23;100746.41;6092564;23;20403;-76
2023/01/10 07:52:52;;;;;;;;;;;8.80;82.60;;;7.62;65.50;100741.03;6092256;23;20236;-76
2023/01/10 07:55:19;;;;;;;;;;;8.80;82.70;;;7.60;65.57;100743.84;6092708;23;20320;-77
2023/01/10 07:57:46;;;;;;;;;;;8.80;82.70;;;7.63;65.59;100743.47;6089717;23;19927;-76
2023/01/10 08:00:14;;;;;;;;;;;8.80;82.80;;;7.64;66.09;100755.75;6091946;23;20416;-77
2023/01/10 08:02:41;;;;;;;;;;;8.80;83.00;;;7.68;65.63;100754.38;6091130;23;20362;-77
2023/01/10 08:05:09;;;;;;;;;;;8.80;83.10;;;7.69;65.92;100755.19;6092281;23;19921;-77
2023/01/10 08:07:36;;;;;;;;;;;8.80;83.10;;;7.69;65.99;100757.84;6092090;23;20359;-77
2023/01/10 08:10:05;;;;;;;;;;;8.80;83.30;;;7.67;65.78;100771.31;6091069;23;19917;-77
2023/01/10 08:12:32;;;;;;;;;;;8.80;82.90;;;7.69;65.65;100782.56;6092623;23;20161;-77
2023/01/10 08:14:59;;;;;;;;;;;8.80;82.70;;;7.71;66.02;100785.00;6092910;23;19949;-77
2023/01/10 08:17:26;;;;;;;;;;;8.80;83.30;;;7.72;65.95;100779.53;6091929;23;19921;-77
2023/01/10 08:19:53;;;;;;;;;;;8.80;83.10;;;7.69;66.04;100787.03;6091800;23;19992;-76
2023/01/10 08:22:20;;;;;;;;;;;8.80;83.30;;;7.72;66.14;100792.00;6087456;23;19925;-77
2023/01/10 08:24:47;;;;;;;;;;;8.90;83.50;;;7.73;66.49;100788.31;6090490;23;20332;-77
2023/01/10 08:27:15;;;;;;;;;;;8.80;83.90;;;7.68;66.14;100796.03;6113149;23;20332;-76
2023/01/10 08:29:42;;;;;;;;;;;8.80;83.30;;;7.61;66.59;100790.63;6091268;23;19932;-76
2023/01/10 08:32:09;;;;;;;;;;;8.80;83.60;;;7.64;66.51;100798.22;6091784;23;19924;-76
2023/01/10 08:34:37;;;;;;;;;;;8.80;83.70;;;7.66;66.55;100796.22;6092053;23;20020;-76
2023/01/10 08:37:04;;;;;;;;;;;8.80;83.70;;;7.66;66.79;100800.66;6091223;23;19921;-76
2023/01/10 08:39:31;;;;;;;;;;;8.80;83.90;;;7.70;66.87;100797.47;6091856;23;19921;-76
2023/01/10 08:41:59;;;;;;;;;;;8.80;83.90;;;7.63;66.18;100801.06;6092618;23;19921;-76
2023/01/10 08:44:27;;;;;;;;;;;8.80;83.30;;;7.65;66.85;100797.19;6092758;23;19920;-76
2023/01/10 08:46:55;;;;;;;;;;;8.80;83.90;;;7.58;66.55;100803.44;6093119;23;19921;-76
2023/01/10 08:49:22;;;;;;;;;;;8.80;83.50;;;7.60;66.41;100802.22;6093107;23;19929;-76
2023/01/10 08:51:49;;;;;;;;;;;8.80;83.50;;;7.63;66.30;100801.88;6094599;23;19944;-76
2023/01/10 08:54:16;;;;;;;;;;;8.80;83.40;;;7.60;66.00;100804.88;6092465;23;20267;-76
2023/01/10 08:56:43;;;;;;;;;;;8.80;83.00;;;7.50;65.48;100809.66;6093021;23;20529;-76
2023/01/10 08:59:10;;;;;;;;;;;8.60;82.70;;;7.53;65.65;100805.81;6092737;23;19917;-76
2023/01/10 09:01:39;;;;;;;;;;;8.70;83.10;;;7.50;66.01;100804.34;6092692;23;19921;-76
2023/01/10 09:04:05;;;;;;;;;;;8.70;83.20;;;7.58;65.92;100803.44;6094048;23;19923;-76
2023/01/10 09:06:33;;;;;;;;;;;8.70;83.30;;;7.50;66.18;100801.69;6093882;23;19925;-76
2023/01/10 09:09:00;;;;;;;;;;;8.70;83.40;;;7.55;66.00;100812.56;6091460;23;19928;-77
2023/01/10 09:11:27;;;;;;;;;;;8.70;83.40;;;7.59;65.75;100813.03;6093879;23;19977;-76
2023/01/10 09:13:54;;;;;;;;;;;8.70;83.10;;;7.61;65.96;100811.03;6094344;23;19952;-76
2023/01/10 09:16:21;;;;;;;;;;;8.70;83.40;;;7.61;65.83;100818.97;6116358;23;19940;-77
2023/01/10 09:18:49;;;;;;;;;;;8.70;82.90;;;7.52;65.88;100812.97;6093360;23;19928;-76
2023/01/10 09:21:16;;;;;;;;;;;8.70;83.10;;;7.53;66.11;100822.56;6092843;23;19920;-77
2023/01/10 09:23:43;;;;;;;;;;;8.70;83.30;;;7.54;65.81;100812.78;6092662;23;20012;-77
2023/01/10 09:26:10;;;;;;;;;;;8.70;83.00;;;7.53;66.03;100819.91;6092249;23;20403;-77
2023/01/10 09:28:37;;;;;;;;;;;8.70;83.20;;;7.59;65.94;100816.53;6092476;23;20391;-76
2023/01/10 09:31:05;;;;;;;;;;;8.70;83.10;;;7.57;66.14;100823.03;6092782;23;20602;-77
2023/01/10 09:33:32;;;;;;;;;;;8.70;83.30;;;7.59;66.20;100813.88;6092552;23;20680;-77
2023/01/10 09:36:00;;;;;;;;;;;8.70;83.20;;;7.59;65.74;100818.34;6093641;23;20557;-77
2023/01/10 09:38:28;;;;;;;;;;;8.70;83.10;;;7.64;65.59;100823.94;6092257;23;20371;-77
2023/01/10 09:41:09;;;;;;;;;;;8.70;83.20;;;7.64;65.89;100816.78;6092811;23;19928;-77
2023/01/10 09:43:42;;;;;;;;;;;8.80;83.20;;;7.72;65.72;100819.38;6093467;23;20000;-77
2023/01/10 09:46:15;;;;;;;;;;;8.80;83.10;;;7.72;65.85;100832.63;6093171;23;20576;-77
2023/01/10 09:48:49;;;;;;;;;;;8.80;82.90;;;7.68;65.71;100823.38;6093663;23;19928;-77
2023/01/10 09:51:29;;;;;;;;;;;8.80;82.90;;;7.68;66.10;100828.69;6133319;23;19999;-79
2023/01/10 09:53:59;;;;;;;;;;;8.80;83.10;;;7.70;65.74;100824.00;6151262;23;19916;-79
2023/01/10 09:56:28;;;;;;;;;;;8.80;83.20;;;7.71;65.74;100836.31;6148688;23;19928;-78
2023/01/10 09:58:56;;;;;;;;;;;8.80;83.00;;;7.66;65.94;100832.53;6150365;23;19931;-79
2023/01/10 10:01:26;;;;;;;;;;;8.80;83.10;;;7.65;65.72;100823.75;6150772;23;19943;-79
2023/01/10 10:03:58;;;;;;;;;;;8.80;82.70;;;7.64;66.09;100823.94;6151959;23;20003;-79
2023/01/10 10:06:26;;;;;;;;;;;8.80;83.30;;;7.66;66.72;100828.06;6150013;23;19920;-79
2023/01/10 10:08:53;;;;;;;;;;;8.80;83.80;;;7.67;66.20;100827.06;6150157;23;19925;-79
2023/01/10 10:11:37;;;;;;;;;;;8.80;83.20;;;7.66;66.33;100828.06;6151322;23;19920;-79
2023/01/10 10:14:10;;;;;;;;;;;8.80;83.20;;;7.70;66.25;100817.88;6151511;23;19920;-79
2023/01/10 10:16:45;;;;;;;;;;;8.80;83.70;;;7.67;66.26;100819.09;6150477;23;19927;-79
2023/01/10 10:19:21;;;;;;;;;;;8.80;83.50;;;7.60;66.59;100804.88;6152189;23;19995;-79
2023/01/10 10:21:53;;;;;;;;;;;8.80;83.50;;;7.63;66.67;100815.16;6151846;23;20382;-79
2023/01/10 10:24:36;;;;;;;;;;;8.80;83.60;;;7.64;66.26;100818.63;6151725;23;19920;-79
2023/01/10 10:27:09;;;;;;;;;;;8.80;83.10;;;7.58;66.33;100825.50;6150633;23;19920;-79
2023/01/10 10:30:03;;;;;;;;;;;8.80;83.30;;;7.61;66.46;100814.53;6152081;23;19917;-79
2023/01/10 10:32:43;;;;;;;;;;;8.80;83.60;;;7.61;67.12;100809.22;6123092;23;19920;-79
2023/01/10 10:35:15;;;;;;;;;;;8.80;83.90;;;7.59;66.69;100813.03;6148956;23;20643;-79
2023/01/10 10:37:46;;;;;;;;;;;8.80;83.50;;;7.59;66.87;100819.16;6149549;23;20223;-79
2023/01/10 10:40:19;;;;;;;;;;;8.80;83.60;;;7.62;66.88;100818.00;6151447;23;19920;-79
2023/01/10 10:42:49;;;;;;;;;;;8.80;83.70;;;7.64;66.72;100813.31;6151351;23;19967;-79
2023/01/10 10:45:19;;;;;;;;;;;8.90;83.70;;;7.69;66.67;100818.91;6151595;23;19920;-79
2023/01/10 10:47:50;;;;;;;;;;;8.80;83.70;;;7.71;66.50;100819.53;6151037;23;20431;-79
2023/01/10 10:50:22;;;;;;;;;;;8.80;83.70;;;7.68;66.36;100804.81;6151254;23;19948;-79
2023/01/10 10:52:51;;;;;;;;;;;8.80;83.40;;;7.69;66.50;100814.41;6151851;23;20007;-78
2023/01/10 10:55:22;;;;;;;;;;;8.80;83.30;;;7.71;66.67;100798.28;6150351;23;19920;-79
2023/01/10 10:57:49;;;;;;;;;;;8.80;83.70;;;7.72;67.10;100798.13;6151222;23;19927;-79
2023/01/10 11:00:20;;;;;;;;;;;8.90;84.10;;;7.73;67.30;100783.00;6151980;23;19916;-78
2023/01/10 11:02:49;;;;;;;;;;;8.90;84.30;;;7.79;66.65;100782.28;6149664;23;19921;-79
2023/01/10 11:05:20;;;;;;;;;;;8.90;83.70;;;7.75;66.56;100778.34;6151427;23;19916;-78
2023/01/10 11:07:47;;;;;;;;;;;8.90;83.30;;;7.74;66.37;100777.50;6151378;23;19916;-79
2023/01/10 11:10:34;;;;;;;;;;;8.90;83.60;;;7.74;66.77;100777.50;6151750;23;20003;-79
2023/01/10 11:13:05;;;;;;;;;;;8.90;83.70;;;7.77;66.29;100770.22;6151081;23;19926;-79
2023/01/10 11:15:37;;;;;;;;;;;8.90;83.50;;;7.71;66.50;100772.59;6151502;23;20327;-79
2023/01/10 11:18:06;;;;;;;;;;;8.90;83.70;;;7.66;66.91;100769.66;6149692;23;20003;-78
2023/01/10 11:20:34;;;;;;;;;;;8.80;83.70;;;7.68;67.20;100772.13;6150225;23;19927;-79
2023/01/10 11:23:01;;;;;;;;;;;8.90;84.10;;;7.74;67.00;100764.25;6151342;23;20307;-79
2023/01/10 11:25:30;;;;;;;;;;;8.90;84.00;;;7.80;67.04;100764.50;6150974;23;19920;-79
2023/01/10 11:27:59;;;;;;;;;;;8.90;84.10;;;7.79;67.05;100763.69;6150274;23;19920;-79
2023/01/10 11:30:28;;;;;;;;;;;9.00;83.70;;;7.79;66.76;100757.56;6150987;23;19920;-79
2023/01/10 11:32:57;;;;;;;;;;;9.00;83.60;;;7.81;66.61;100761.69;6151471;23;19921;-79
2023/01/10 11:35:27;;;;;;;;;;;9.00;83.40;;;7.80;66.64;100757.34;6148189;23;19945;-79
2023/01/10 11:38:01;;;;;;;;;;;9.00;83.60;;;7.79;67.07;100763.69;6150569;23;19916;-79
2023/01/10 11:40:30;;;;;;;;;;;9.00;83.80;;;7.80;66.59;100764.50;6150006;23;19935;-79
2023/01/10 11:42:59;;;;;;;;;;;9.00;83.50;;;7.82;66.67;100759.84;6149265;23;20299;-79